Terminal Aerodrome Forecast
Issued by NWS

Home | Current Version | Previous Version | Text Only | Print | Product List | Glossary On
Versions: 1 2 3 4 5 6 7 8 9 10 11 12 13 14 15 16 17 18 19
000
FTUS43 KGRR 010500
TAFJXN
TAF
KJXN 010540Z 0106/0206 34004KT 1 1/2SM -SN OVC015
     FM010800 04006KT 3/4SM -SN OVC008
     FM011200 07012G20KT 1/2SM SN BLSN OVC006
     FM011800 06016G26KT 1/4SM +SN BLSN VV004=

USA.gov is the U.S. government's official web portal to all federal, state and local government web resources and services.